Ana Sayfa
METAR-TAF:

METAR-TAF

Havaalanları :

Denton Municipal Airport

Denton, Teksas, Amerika Birleşik Devletleri

Enlem: 33-12-22N, Boylam: 097-11-56W, yükseklik: 195 m

Güncel hava durumu gözlemi

Rapor saat 07:53 UTC de 22 dakika önce yapıldı.
Rüzgar kuzey/kuzeybatıdan 15 kt ve 22 kt'a kadar ani rüzgarlar
Sıcaklık 3°C
Nem 93%
Basınç 1015 hPa
Görüş mesafesi: 16.1 km
1000 ft yükseklikte çok bulutlu

METAR: KDTO 290753Z AUTO 33015G22KT 10SM OVC010 03/02 A2998 RMK AO2 RAE49 SLP150 P0000 T00330017

Saat: 02:15 (08:15 UTC)


TAF: eksik

4.000'den fazla havaalanı için hava durumu gözlemleri ve tahminleri (METAR ve TAF raporları).

Kullanılabilir istasyonlar harita üzerinde sarı ve kırmızı noktalarla gösterilir.

İstasyonun adını görmek için fareyi noktanın üzerinde gezdirin.

Sonrasında hava gözlem ve tahminlerini görmek için tıklayın.

Haritayı değiştirmek için: yaklaştırmak için siyah artı işaretli yeşil düğmeye ve uzaklaştırmak için de eksi işaretli düğmeye hızla tıklayın; bitişik haritalar için yeşil okları kullanın.


METAR-TAF: